Menfro, Missouri
Current Conditions -  °F | °C
As of 2:35 AM on Saturday 22 Nov 2014 (Local Time) from KSAR Reporting Station
Broken Clouds Broken Clouds  
Wind Chill: 40°   Ceiling: 8500
Heat Index: 46°   Visibility: 10mi
Dew Point: 33°   Wind: 10mph
Humidity: 62%   Direction: 180°S
Pressure: 30.2"   Gusts: 18mph
Location:  37.7768°N, 89.7232°W
Report Text: KSAR 220835Z AUTO 18009G16KT 10SM BKN085 08/01 A3020 RMK AO2 T00750006
Loading
Personal Weather Stations






























Interactive Weather Map New forecast layout! Learn more

10-Day Weather Forecast

Advertisements
Track Severe Weather on mobile